sensor_id;sensor_type;location;lat;lon;timestamp;temperature;humidity
5846;DHT22;2949;50.778;7.094;2023-08-07T00:01:46;13.30;99.90
5846;DHT22;2949;50.778;7.094;2023-08-07T00:04:12;13.30;99.90
5846;DHT22;2949;50.778;7.094;2023-08-07T00:06:37;13.40;99.90
5846;DHT22;2949;50.778;7.094;2023-08-07T00:09:03;13.30;99.90
5846;DHT22;2949;50.778;7.094;2023-08-07T00:11:28;13.30;99.90
5846;DHT22;2949;50.778;7.094;2023-08-07T00:13:54;13.30;99.90
5846;DHT22;2949;50.778;7.094;2023-08-07T00:16:20;13.30;99.90
5846;DHT22;2949;50.778;7.094;2023-08-07T00:18:45;13.20;99.90
5846;DHT22;2949;50.778;7.094;2023-08-07T00:21:11;13.30;99.90
5846;DHT22;2949;50.778;7.094;2023-08-07T00:23:37;13.20;99.90
5846;DHT22;2949;50.778;7.094;2023-08-07T00:26:02;13.20;99.90
5846;DHT22;2949;50.778;7.094;2023-08-07T00:28:28;13.30;99.90
5846;DHT22;2949;50.778;7.094;2023-08-07T00:30:55;13.20;99.90
5846;DHT22;2949;50.778;7.094;2023-08-07T00:33:20;13.20;99.90
5846;DHT22;2949;50.778;7.094;2023-08-07T00:35:45;13.20;99.90
5846;DHT22;2949;50.778;7.094;2023-08-07T00:38:11;13.20;99.90
5846;DHT22;2949;50.778;7.094;2023-08-07T00:40:38;13.20;99.90
5846;DHT22;2949;50.778;7.094;2023-08-07T00:43:04;13.20;99.90
5846;DHT22;2949;50.778;7.094;2023-08-07T00:45:29;13.20;99.90
5846;DHT22;2949;50.778;7.094;2023-08-07T00:47:57;13.30;99.90
5846;DHT22;2949;50.778;7.094;2023-08-07T00:50:23;13.30;99.90
5846;DHT22;2949;50.778;7.094;2023-08-07T00:52:49;13.30;99.90
5846;DHT22;2949;50.778;7.094;2023-08-07T00:55:14;13.30;99.90
5846;DHT22;2949;50.778;7.094;2023-08-07T00:57:40;13.20;99.90
5846;DHT22;2949;50.778;7.094;2023-08-07T01:00:06;13.30;99.90
5846;DHT22;2949;50.778;7.094;2023-08-07T01:02:33;13.30;99.90
5846;DHT22;2949;50.778;7.094;2023-08-07T01:04:58;13.30;99.90
5846;DHT22;2949;50.778;7.094;2023-08-07T01:07:24;13.20;99.90
5846;DHT22;2949;50.778;7.094;2023-08-07T01:09:49;13.20;99.90
5846;DHT22;2949;50.778;7.094;2023-08-07T01:12:20;13.20;99.90
5846;DHT22;2949;50.778;7.094;2023-08-07T01:17:30;13.10;99.90
5846;DHT22;2949;50.778;7.094;2023-08-07T01:19:59;13.10;99.90
5846;DHT22;2949;50.778;7.094;2023-08-07T01:22:24;13.20;99.90
5846;DHT22;2949;50.778;7.094;2023-08-07T01:24:50;13.10;99.90
5846;DHT22;2949;50.778;7.094;2023-08-07T01:32:49;13.20;99.90
5846;DHT22;2949;50.778;7.094;2023-08-07T01:35:22;13.20;99.90
5846;DHT22;2949;50.778;7.094;2023-08-07T01:37:52;13.20;99.90
5846;DHT22;2949;50.778;7.094;2023-08-07T01:40:19;13.20;99.90
5846;DHT22;2949;50.778;7.094;2023-08-07T01:42:46;13.20;99.90
5846;DHT22;2949;50.778;7.094;2023-08-07T01:45:12;13.20;99.90
5846;DHT22;2949;50.778;7.094;2023-08-07T01:47:38;13.20;99.90
5846;DHT22;2949;50.778;7.094;2023-08-07T01:50:04;13.20;99.90
5846;DHT22;2949;50.778;7.094;2023-08-07T01:52:29;13.20;99.90
5846;DHT22;2949;50.778;7.094;2023-08-07T01:54:55;13.20;99.90
5846;DHT22;2949;50.778;7.094;2023-08-07T01:57:21;13.20;99.90
5846;DHT22;2949;50.778;7.094;2023-08-07T01:59:46;13.20;99.90
5846;DHT22;2949;50.778;7.094;2023-08-07T02:02:12;13.30;99.90
5846;DHT22;2949;50.778;7.094;2023-08-07T02:04:37;13.30;99.90
5846;DHT22;2949;50.778;7.094;2023-08-07T02:07:03;13.20;99.90
5846;DHT22;2949;50.778;7.094;2023-08-07T02:09:29;13.30;99.90
5846;DHT22;2949;50.778;7.094;2023-08-07T02:11:54;13.30;99.90
5846;DHT22;2949;50.778;7.094;2023-08-07T02:14:20;13.30;99.90
5846;DHT22;2949;50.778;7.094;2023-08-07T02:16:45;13.30;99.90
5846;DHT22;2949;50.778;7.094;2023-08-07T02:19:11;13.30;99.90
5846;DHT22;2949;50.778;7.094;2023-08-07T02:21:36;13.30;99.90
5846;DHT22;2949;50.778;7.094;2023-08-07T02:24:02;13.30;99.90
5846;DHT22;2949;50.778;7.094;2023-08-07T02:26:27;13.30;99.90
5846;DHT22;2949;50.778;7.094;2023-08-07T02:28:53;13.30;99.90
5846;DHT22;2949;50.778;7.094;2023-08-07T02:31:18;13.30;99.90
5846;DHT22;2949;50.778;7.094;2023-08-07T02:33:44;13.30;99.90
5846;DHT22;2949;50.778;7.094;2023-08-07T02:36:09;13.30;99.90
5846;DHT22;2949;50.778;7.094;2023-08-07T02:38:34;13.30;99.90
5846;DHT22;2949;50.778;7.094;2023-08-07T02:41:00;13.30;99.90
5846;DHT22;2949;50.778;7.094;2023-08-07T02:43:25;13.30;99.90
5846;DHT22;2949;50.778;7.094;2023-08-07T02:45:52;13.30;99.90
5846;DHT22;2949;50.778;7.094;2023-08-07T02:48:18;13.30;99.90
5846;DHT22;2949;50.778;7.094;2023-08-07T02:50:43;13.30;99.90
5846;DHT22;2949;50.778;7.094;2023-08-07T02:53:09;13.40;99.90
5846;DHT22;2949;50.778;7.094;2023-08-07T02:55:35;13.30;99.90
5846;DHT22;2949;50.778;7.094;2023-08-07T02:58:00;13.40;99.90
5846;DHT22;2949;50.778;7.094;2023-08-07T03:00:26;13.40;99.90
5846;DHT22;2949;50.778;7.094;2023-08-07T03:02:51;13.30;99.90
5846;DHT22;2949;50.778;7.094;2023-08-07T03:05:17;13.30;99.90
5846;DHT22;2949;50.778;7.094;2023-08-07T03:07:42;13.30;99.90
5846;DHT22;2949;50.778;7.094;2023-08-07T03:10:08;13.20;99.90
5846;DHT22;2949;50.778;7.094;2023-08-07T03:12:34;13.20;99.90
5846;DHT22;2949;50.778;7.094;2023-08-07T03:14:59;13.20;99.90
5846;DHT22;2949;50.778;7.094;2023-08-07T03:17:25;13.10;99.90
5846;DHT22;2949;50.778;7.094;2023-08-07T03:19:50;13.10;99.90
5846;DHT22;2949;50.778;7.094;2023-08-07T03:22:16;13.10;99.90
5846;DHT22;2949;50.778;7.094;2023-08-07T03:24:46;13.10;99.90
5846;DHT22;2949;50.778;7.094;2023-08-07T03:27:12;13.00;99.90
5846;DHT22;2949;50.778;7.094;2023-08-07T03:29:37;13.00;99.90
5846;DHT22;2949;50.778;7.094;2023-08-07T03:32:03;13.00;99.90
5846;DHT22;2949;50.778;7.094;2023-08-07T03:34:28;13.00;99.90
5846;DHT22;2949;50.778;7.094;2023-08-07T03:36:54;13.00;99.90
5846;DHT22;2949;50.778;7.094;2023-08-07T03:39:20;13.00;99.90
5846;DHT22;2949;50.778;7.094;2023-08-07T03:41:46;12.90;99.90
5846;DHT22;2949;50.778;7.094;2023-08-07T03:44:11;12.90;99.90
5846;DHT22;2949;50.778;7.094;2023-08-07T03:46:37;12.90;99.90
5846;DHT22;2949;50.778;7.094;2023-08-07T03:49:02;12.90;99.90
5846;DHT22;2949;50.778;7.094;2023-08-07T03:51:28;12.90;99.90
5846;DHT22;2949;50.778;7.094;2023-08-07T03:53:55;12.80;99.90
5846;DHT22;2949;50.778;7.094;2023-08-07T03:56:20;12.80;99.90
5846;DHT22;2949;50.778;7.094;2023-08-07T03:58:46;12.80;99.90
5846;DHT22;2949;50.778;7.094;2023-08-07T04:01:11;12.80;99.90
5846;DHT22;2949;50.778;7.094;2023-08-07T04:03:37;12.70;99.90
5846;DHT22;2949;50.778;7.094;2023-08-07T04:06:02;12.70;99.90
5846;DHT22;2949;50.778;7.094;2023-08-07T04:08:30;12.70;99.90
5846;DHT22;2949;50.778;7.094;2023-08-07T04:11:03;12.70;99.90
5846;DHT22;2949;50.778;7.094;2023-08-07T04:13:30;12.70;99.90
5846;DHT22;2949;50.778;7.094;2023-08-07T04:15:56;12.70;99.90
5846;DHT22;2949;50.778;7.094;2023-08-07T04:18:22;12.70;99.90
5846;DHT22;2949;50.778;7.094;2023-08-07T04:20:55;12.60;99.90
5846;DHT22;2949;50.778;7.094;2023-08-07T04:23:22;12.60;99.90
5846;DHT22;2949;50.778;7.094;2023-08-07T04:25:48;12.60;99.90
5846;DHT22;2949;50.778;7.094;2023-08-07T04:28:13;12.50;99.90
5846;DHT22;2949;50.778;7.094;2023-08-07T04:30:43;12.50;99.90
5846;DHT22;2949;50.778;7.094;2023-08-07T04:33:08;12.40;99.90
5846;DHT22;2949;50.778;7.094;2023-08-07T04:35:34;12.40;99.90
5846;DHT22;2949;50.778;7.094;2023-08-07T04:38:00;12.40;99.90
5846;DHT22;2949;50.778;7.094;2023-08-07T04:40:26;12.40;99.90
5846;DHT22;2949;50.778;7.094;2023-08-07T04:42:51;12.40;99.90
5846;DHT22;2949;50.778;7.094;2023-08-07T04:45:17;12.30;99.90
5846;DHT22;2949;50.778;7.094;2023-08-07T04:47:43;12.30;99.90
5846;DHT22;2949;50.778;7.094;2023-08-07T04:50:08;12.40;99.90
5846;DHT22;2949;50.778;7.094;2023-08-07T04:52:35;12.40;99.90
5846;DHT22;2949;50.778;7.094;2023-08-07T04:55:00;12.40;99.90
5846;DHT22;2949;50.778;7.094;2023-08-07T04:57:26;12.40;99.90
5846;DHT22;2949;50.778;7.094;2023-08-07T04:59:52;12.40;99.90
5846;DHT22;2949;50.778;7.094;2023-08-07T05:02:18;12.40;99.90
5846;DHT22;2949;50.778;7.094;2023-08-07T05:04:44;12.40;99.90
5846;DHT22;2949;50.778;7.094;2023-08-07T05:07:09;12.50;99.90
5846;DHT22;2949;50.778;7.094;2023-08-07T05:09:35;12.50;99.90
5846;DHT22;2949;50.778;7.094;2023-08-07T05:12:01;12.50;99.90
5846;DHT22;2949;50.778;7.094;2023-08-07T05:14:27;12.60;99.90
5846;DHT22;2949;50.778;7.094;2023-08-07T05:16:52;12.60;99.90
5846;DHT22;2949;50.778;7.094;2023-08-07T05:19:18;12.70;99.90
5846;DHT22;2949;50.778;7.094;2023-08-07T05:21:44;12.80;99.90
5846;DHT22;2949;50.778;7.094;2023-08-07T05:24:09;12.80;99.90
5846;DHT22;2949;50.778;7.094;2023-08-07T05:26:34;12.90;99.90
5846;DHT22;2949;50.778;7.094;2023-08-07T05:29:00;13.00;99.90
5846;DHT22;2949;50.778;7.094;2023-08-07T05:31:25;13.10;99.90
5846;DHT22;2949;50.778;7.094;2023-08-07T05:33:51;13.10;99.90
5846;DHT22;2949;50.778;7.094;2023-08-07T05:36:17;13.10;99.90
5846;DHT22;2949;50.778;7.094;2023-08-07T05:38:42;13.20;99.90
5846;DHT22;2949;50.778;7.094;2023-08-07T05:41:09;13.20;99.90
5846;DHT22;2949;50.778;7.094;2023-08-07T05:43:35;13.30;99.90
5846;DHT22;2949;50.778;7.094;2023-08-07T05:46:00;13.30;99.90
5846;DHT22;2949;50.778;7.094;2023-08-07T05:48:26;13.40;99.90
5846;DHT22;2949;50.778;7.094;2023-08-07T05:50:51;13.50;99.90
5846;DHT22;2949;50.778;7.094;2023-08-07T05:53:19;13.50;99.90
5846;DHT22;2949;50.778;7.094;2023-08-07T05:55:45;13.50;99.90
5846;DHT22;2949;50.778;7.094;2023-08-07T05:58:10;13.60;99.90
5846;DHT22;2949;50.778;7.094;2023-08-07T06:00:36;13.60;99.90
5846;DHT22;2949;50.778;7.094;2023-08-07T06:03:01;13.70;99.90
5846;DHT22;2949;50.778;7.094;2023-08-07T06:05:27;13.70;99.90
5846;DHT22;2949;50.778;7.094;2023-08-07T06:07:52;13.70;99.90
5846;DHT22;2949;50.778;7.094;2023-08-07T06:10:18;13.60;99.90
5846;DHT22;2949;50.778;7.094;2023-08-07T06:12:44;13.60;99.90
5846;DHT22;2949;50.778;7.094;2023-08-07T06:15:09;13.60;99.90
5846;DHT22;2949;50.778;7.094;2023-08-07T06:17:35;13.70;99.90
5846;DHT22;2949;50.778;7.094;2023-08-07T06:20:00;13.60;99.90
5846;DHT22;2949;50.778;7.094;2023-08-07T06:22:26;13.70;99.90
5846;DHT22;2949;50.778;7.094;2023-08-07T06:24:52;13.60;99.90
5846;DHT22;2949;50.778;7.094;2023-08-07T06:27:17;13.70;99.90
5846;DHT22;2949;50.778;7.094;2023-08-07T06:29:43;13.70;99.90
5846;DHT22;2949;50.778;7.094;2023-08-07T06:32:08;13.70;99.90
5846;DHT22;2949;50.778;7.094;2023-08-07T06:34:35;13.60;99.90
5846;DHT22;2949;50.778;7.094;2023-08-07T06:37:03;13.50;99.90
5846;DHT22;2949;50.778;7.094;2023-08-07T06:39:29;13.50;99.90
5846;DHT22;2949;50.778;7.094;2023-08-07T06:41:55;13.40;99.90
5846;DHT22;2949;50.778;7.094;2023-08-07T06:44:20;13.40;99.90
5846;DHT22;2949;50.778;7.094;2023-08-07T06:46:46;13.30;99.90
5846;DHT22;2949;50.778;7.094;2023-08-07T06:49:11;13.20;99.90
5846;DHT22;2949;50.778;7.094;2023-08-07T06:51:37;13.10;99.90
5846;DHT22;2949;50.778;7.094;2023-08-07T06:54:02;13.00;99.90
5846;DHT22;2949;50.778;7.094;2023-08-07T06:56:28;12.90;99.90
5846;DHT22;2949;50.778;7.094;2023-08-07T06:58:54;12.90;99.90
5846;DHT22;2949;50.778;7.094;2023-08-07T07:01:19;12.80;99.90
5846;DHT22;2949;50.778;7.094;2023-08-07T07:03:45;12.80;99.90
5846;DHT22;2949;50.778;7.094;2023-08-07T07:06:12;12.80;99.90
5846;DHT22;2949;50.778;7.094;2023-08-07T07:08:38;12.80;99.90
5846;DHT22;2949;50.778;7.094;2023-08-07T07:11:03;12.70;99.90
5846;DHT22;2949;50.778;7.094;2023-08-07T07:13:30;12.70;99.90
5846;DHT22;2949;50.778;7.094;2023-08-07T07:15:55;12.70;99.90
5846;DHT22;2949;50.778;7.094;2023-08-07T07:18:21;12.70;99.90
5846;DHT22;2949;50.778;7.094;2023-08-07T07:20:46;12.70;99.90
5846;DHT22;2949;50.778;7.094;2023-08-07T07:23:12;12.70;99.90
5846;DHT22;2949;50.778;7.094;2023-08-07T07:25:38;12.70;99.90
5846;DHT22;2949;50.778;7.094;2023-08-07T07:28:03;12.70;99.90
5846;DHT22;2949;50.778;7.094;2023-08-07T07:30:29;12.70;99.90
5846;DHT22;2949;50.778;7.094;2023-08-07T07:32:54;12.80;99.90
5846;DHT22;2949;50.778;7.094;2023-08-07T07:35:20;12.80;99.90
5846;DHT22;2949;50.778;7.094;2023-08-07T07:37:45;12.90;99.90
5846;DHT22;2949;50.778;7.094;2023-08-07T07:40:11;13.00;99.90
5846;DHT22;2949;50.778;7.094;2023-08-07T07:42:36;13.10;99.90
5846;DHT22;2949;50.778;7.094;2023-08-07T07:45:02;13.20;99.90
5846;DHT22;2949;50.778;7.094;2023-08-07T07:47:28;13.30;99.90
5846;DHT22;2949;50.778;7.094;2023-08-07T07:50:05;13.30;99.90
5846;DHT22;2949;50.778;7.094;2023-08-07T07:52:31;13.30;99.90
5846;DHT22;2949;50.778;7.094;2023-08-07T07:54:57;13.40;99.90
5846;DHT22;2949;50.778;7.094;2023-08-07T07:57:22;13.60;99.90
5846;DHT22;2949;50.778;7.094;2023-08-07T07:59:48;13.60;99.90
5846;DHT22;2949;50.778;7.094;2023-08-07T08:02:14;13.70;99.90
5846;DHT22;2949;50.778;7.094;2023-08-07T08:04:41;13.90;99.90
5846;DHT22;2949;50.778;7.094;2023-08-07T08:07:06;14.00;99.90
5846;DHT22;2949;50.778;7.094;2023-08-07T08:09:32;14.10;99.90
5846;DHT22;2949;50.778;7.094;2023-08-07T08:11:57;14.20;99.90
5846;DHT22;2949;50.778;7.094;2023-08-07T08:14:23;14.20;99.90
5846;DHT22;2949;50.778;7.094;2023-08-07T08:16:49;14.30;99.90
5846;DHT22;2949;50.778;7.094;2023-08-07T08:19:15;14.30;99.90
5846;DHT22;2949;50.778;7.094;2023-08-07T08:21:42;14.30;99.90
5846;DHT22;2949;50.778;7.094;2023-08-07T08:24:07;14.30;99.90
5846;DHT22;2949;50.778;7.094;2023-08-07T08:26:33;14.30;99.90
5846;DHT22;2949;50.778;7.094;2023-08-07T08:28:58;14.40;99.90
5846;DHT22;2949;50.778;7.094;2023-08-07T08:31:24;14.40;99.90
5846;DHT22;2949;50.778;7.094;2023-08-07T08:33:50;14.40;99.90
5846;DHT22;2949;50.778;7.094;2023-08-07T08:36:15;14.40;99.90
5846;DHT22;2949;50.778;7.094;2023-08-07T08:38:41;14.40;99.90
5846;DHT22;2949;50.778;7.094;2023-08-07T08:41:07;14.60;99.90
5846;DHT22;2949;50.778;7.094;2023-08-07T08:43:35;14.70;99.90
5846;DHT22;2949;50.778;7.094;2023-08-07T08:46:04;14.70;99.90
5846;DHT22;2949;50.778;7.094;2023-08-07T08:48:34;14.80;99.90
5846;DHT22;2949;50.778;7.094;2023-08-07T08:51:00;15.00;99.90
5846;DHT22;2949;50.778;7.094;2023-08-07T08:53:27;15.10;99.90
5846;DHT22;2949;50.778;7.094;2023-08-07T08:55:53;15.30;99.90
5846;DHT22;2949;50.778;7.094;2023-08-07T08:58:20;15.40;99.90
5846;DHT22;2949;50.778;7.094;2023-08-07T09:00:45;15.60;99.90
5846;DHT22;2949;50.778;7.094;2023-08-07T09:03:11;15.60;99.90
5846;DHT22;2949;50.778;7.094;2023-08-07T09:05:37;15.50;99.90
5846;DHT22;2949;50.778;7.094;2023-08-07T09:08:03;15.60;99.90
5846;DHT22;2949;50.778;7.094;2023-08-07T09:10:31;15.80;99.90
5846;DHT22;2949;50.778;7.094;2023-08-07T09:13:00;16.00;99.90
5846;DHT22;2949;50.778;7.094;2023-08-07T09:15:29;16.20;99.90
5846;DHT22;2949;50.778;7.094;2023-08-07T09:17:55;16.20;99.90
5846;DHT22;2949;50.778;7.094;2023-08-07T09:20:21;16.30;99.90
5846;DHT22;2949;50.778;7.094;2023-08-07T09:22:48;16.40;99.90
5846;DHT22;2949;50.778;7.094;2023-08-07T09:25:14;16.70;99.90
5846;DHT22;2949;50.778;7.094;2023-08-07T09:27:40;17.10;99.90
5846;DHT22;2949;50.778;7.094;2023-08-07T09:30:06;17.40;99.90
5846;DHT22;2949;50.778;7.094;2023-08-07T09:32:36;17.90;99.90
5846;DHT22;2949;50.778;7.094;2023-08-07T09:35:06;18.20;99.90
5846;DHT22;2949;50.778;7.094;2023-08-07T09:37:31;18.20;99.90
5846;DHT22;2949;50.778;7.094;2023-08-07T09:40:00;18.20;99.90
5846;DHT22;2949;50.778;7.094;2023-08-07T09:42:25;18.00;99.90
5846;DHT22;2949;50.778;7.094;2023-08-07T09:44:55;17.60;99.90
5846;DHT22;2949;50.778;7.094;2023-08-07T09:47:20;17.30;99.90
5846;DHT22;2949;50.778;7.094;2023-08-07T09:49:47;17.00;99.90
5846;DHT22;2949;50.778;7.094;2023-08-07T09:52:14;16.90;99.90
5846;DHT22;2949;50.778;7.094;2023-08-07T09:54:41;17.20;99.90
5846;DHT22;2949;50.778;7.094;2023-08-07T09:57:07;17.50;99.90
5846;DHT22;2949;50.778;7.094;2023-08-07T09:59:33;17.50;99.90
5846;DHT22;2949;50.778;7.094;2023-08-07T10:02:01;17.50;99.90
5846;DHT22;2949;50.778;7.094;2023-08-07T10:04:29;18.00;99.90
5846;DHT22;2949;50.778;7.094;2023-08-07T10:06:56;17.90;99.90
5846;DHT22;2949;50.778;7.094;2023-08-07T10:09:22;18.00;99.90
5846;DHT22;2949;50.778;7.094;2023-08-07T10:11:49;18.00;99.90
5846;DHT22;2949;50.778;7.094;2023-08-07T10:14:16;18.20;99.90
5846;DHT22;2949;50.778;7.094;2023-08-07T10:16:42;18.30;99.90
5846;DHT22;2949;50.778;7.094;2023-08-07T10:19:08;18.50;99.90
5846;DHT22;2949;50.778;7.094;2023-08-07T10:21:41;18.60;99.90
5846;DHT22;2949;50.778;7.094;2023-08-07T10:24:08;18.60;99.90
5846;DHT22;2949;50.778;7.094;2023-08-07T10:26:35;18.60;99.90
5846;DHT22;2949;50.778;7.094;2023-08-07T10:29:04;18.60;99.90
5846;DHT22;2949;50.778;7.094;2023-08-07T10:31:31;18.70;99.90
5846;DHT22;2949;50.778;7.094;2023-08-07T10:33:58;19.10;99.90
5846;DHT22;2949;50.778;7.094;2023-08-07T10:36:32;19.60;99.90
5846;DHT22;2949;50.778;7.094;2023-08-07T10:39:09;20.00;99.90
5846;DHT22;2949;50.778;7.094;2023-08-07T10:41:53;20.20;99.90
5846;DHT22;2949;50.778;7.094;2023-08-07T10:46:48;20.40;99.90
5846;DHT22;2949;50.778;7.094;2023-08-07T10:51:55;20.70;99.90
5846;DHT22;2949;50.778;7.094;2023-08-07T10:54:21;20.70;99.90
5846;DHT22;2949;50.778;7.094;2023-08-07T10:56:53;20.70;99.90
5846;DHT22;2949;50.778;7.094;2023-08-07T10:59:19;20.80;99.90
5846;DHT22;2949;50.778;7.094;2023-08-07T11:01:51;21.10;99.90
5846;DHT22;2949;50.778;7.094;2023-08-07T11:04:17;21.50;99.90
5846;DHT22;2949;50.778;7.094;2023-08-07T11:06:43;21.70;99.90
5846;DHT22;2949;50.778;7.094;2023-08-07T11:09:12;21.80;99.90
5846;DHT22;2949;50.778;7.094;2023-08-07T11:11:39;21.70;99.90
5846;DHT22;2949;50.778;7.094;2023-08-07T11:14:23;21.50;99.90
5846;DHT22;2949;50.778;7.094;2023-08-07T11:16:49;20.90;99.90
5846;DHT22;2949;50.778;7.094;2023-08-07T11:19:17;20.70;99.90
5846;DHT22;2949;50.778;7.094;2023-08-07T11:21:43;20.40;99.90
5846;DHT22;2949;50.778;7.094;2023-08-07T11:24:11;20.40;99.90
5846;DHT22;2949;50.778;7.094;2023-08-07T11:26:37;20.90;99.90
5846;DHT22;2949;50.778;7.094;2023-08-07T11:29:02;20.90;99.90
5846;DHT22;2949;50.778;7.094;2023-08-07T11:31:28;20.90;99.90
5846;DHT22;2949;50.778;7.094;2023-08-07T11:33:57;20.60;99.90
5846;DHT22;2949;50.778;7.094;2023-08-07T11:36:24;20.50;99.90
5846;DHT22;2949;50.778;7.094;2023-08-07T11:38:50;20.70;99.90
5846;DHT22;2949;50.778;7.094;2023-08-07T11:41:17;20.50;99.90
5846;DHT22;2949;50.778;7.094;2023-08-07T11:43:43;20.40;99.90
5846;DHT22;2949;50.778;7.094;2023-08-07T11:46:14;20.50;99.90
5846;DHT22;2949;50.778;7.094;2023-08-07T11:48:41;20.70;99.90
5846;DHT22;2949;50.778;7.094;2023-08-07T11:51:07;21.10;99.90
5846;DHT22;2949;50.778;7.094;2023-08-07T11:53:35;21.10;99.90
5846;DHT22;2949;50.778;7.094;2023-08-07T11:56:04;20.70;99.90
5846;DHT22;2949;50.778;7.094;2023-08-07T11:58:35;20.50;99.90
5846;DHT22;2949;50.778;7.094;2023-08-07T12:01:12;20.30;99.90
5846;DHT22;2949;50.778;7.094;2023-08-07T12:03:40;20.20;99.90
5846;DHT22;2949;50.778;7.094;2023-08-07T12:06:07;20.00;99.90
5846;DHT22;2949;50.778;7.094;2023-08-07T12:08:35;20.10;99.90
5846;DHT22;2949;50.778;7.094;2023-08-07T12:11:03;20.60;99.90
5846;DHT22;2949;50.778;7.094;2023-08-07T12:13:29;20.70;99.90
5846;DHT22;2949;50.778;7.094;2023-08-07T12:15:56;20.40;99.90
5846;DHT22;2949;50.778;7.094;2023-08-07T12:18:23;20.60;99.90
5846;DHT22;2949;50.778;7.094;2023-08-07T12:20:50;20.50;99.90
5846;DHT22;2949;50.778;7.094;2023-08-07T12:23:17;20.40;99.90
5846;DHT22;2949;50.778;7.094;2023-08-07T12:25:44;20.30;99.90
5846;DHT22;2949;50.778;7.094;2023-08-07T12:28:10;20.60;99.90
5846;DHT22;2949;50.778;7.094;2023-08-07T12:30:39;21.00;99.90
5846;DHT22;2949;50.778;7.094;2023-08-07T12:33:05;21.00;99.90
5846;DHT22;2949;50.778;7.094;2023-08-07T12:35:33;21.10;98.80
5846;DHT22;2949;50.778;7.094;2023-08-07T12:37:59;21.30;98.20
5846;DHT22;2949;50.778;7.094;2023-08-07T12:40:25;21.40;99.40
5846;DHT22;2949;50.778;7.094;2023-08-07T12:42:50;21.60;98.00
5846;DHT22;2949;50.778;7.094;2023-08-07T12:45:16;21.90;98.30
5846;DHT22;2949;50.778;7.094;2023-08-07T12:47:42;21.90;97.60
5846;DHT22;2949;50.778;7.094;2023-08-07T12:50:08;21.80;98.10
5846;DHT22;2949;50.778;7.094;2023-08-07T12:52:34;21.70;97.60
5846;DHT22;2949;50.778;7.094;2023-08-07T12:55:00;21.50;99.20
5846;DHT22;2949;50.778;7.094;2023-08-07T12:57:26;21.50;96.90
5846;DHT22;2949;50.778;7.094;2023-08-07T12:59:51;21.30;97.60
5846;DHT22;2949;50.778;7.094;2023-08-07T13:02:17;21.40;98.80
5846;DHT22;2949;50.778;7.094;2023-08-07T13:04:42;21.70;96.90
5846;DHT22;2949;50.778;7.094;2023-08-07T13:07:08;22.20;97.80
5846;DHT22;2949;50.778;7.094;2023-08-07T13:09:33;22.30;95.50
5846;DHT22;2949;50.778;7.094;2023-08-07T13:11:59;22.10;96.90
5846;DHT22;2949;50.778;7.094;2023-08-07T13:14:24;21.90;96.90
5846;DHT22;2949;50.778;7.094;2023-08-07T13:16:50;21.60;99.10
5846;DHT22;2949;50.778;7.094;2023-08-07T13:19:16;21.30;99.40
5846;DHT22;2949;50.778;7.094;2023-08-07T13:21:42;20.80;99.90
5846;DHT22;2949;50.778;7.094;2023-08-07T13:24:07;20.40;99.90
5846;DHT22;2949;50.778;7.094;2023-08-07T13:26:33;20.10;99.90
5846;DHT22;2949;50.778;7.094;2023-08-07T13:28:58;20.20;99.90
5846;DHT22;2949;50.778;7.094;2023-08-07T13:31:24;20.40;99.90
5846;DHT22;2949;50.778;7.094;2023-08-07T13:33:49;20.60;99.90
5846;DHT22;2949;50.778;7.094;2023-08-07T13:36:15;20.60;99.90
5846;DHT22;2949;50.778;7.094;2023-08-07T13:38:40;20.80;99.90
5846;DHT22;2949;50.778;7.094;2023-08-07T13:41:06;20.90;99.90
5846;DHT22;2949;50.778;7.094;2023-08-07T13:43:32;20.80;99.90
5846;DHT22;2949;50.778;7.094;2023-08-07T13:45:57;20.90;99.90
5846;DHT22;2949;50.778;7.094;2023-08-07T13:48:23;21.00;99.90
5846;DHT22;2949;50.778;7.094;2023-08-07T13:50:52;21.50;99.90
5846;DHT22;2949;50.778;7.094;2023-08-07T13:53:17;21.70;99.90
5846;DHT22;2949;50.778;7.094;2023-08-07T13:55:44;21.90;99.90
5846;DHT22;2949;50.778;7.094;2023-08-07T13:58:10;22.00;98.90
5846;DHT22;2949;50.778;7.094;2023-08-07T14:00:35;21.80;99.10
5846;DHT22;2949;50.778;7.094;2023-08-07T14:03:01;21.40;97.20
5846;DHT22;2949;50.778;7.094;2023-08-07T14:05:26;21.20;99.50
5846;DHT22;2949;50.778;7.094;2023-08-07T14:07:52;21.30;98.90
5846;DHT22;2949;50.778;7.094;2023-08-07T14:10:18;21.40;98.90
5846;DHT22;2949;50.778;7.094;2023-08-07T14:12:44;21.30;98.90
5846;DHT22;2949;50.778;7.094;2023-08-07T14:15:09;21.10;99.90
5846;DHT22;2949;50.778;7.094;2023-08-07T14:17:37;20.60;99.90
5846;DHT22;2949;50.778;7.094;2023-08-07T14:20:03;20.10;99.90
5846;DHT22;2949;50.778;7.094;2023-08-07T14:22:30;19.70;99.90
5846;DHT22;2949;50.778;7.094;2023-08-07T14:24:56;19.30;99.90
5846;DHT22;2949;50.778;7.094;2023-08-07T14:27:22;19.00;99.90
5846;DHT22;2949;50.778;7.094;2023-08-07T14:29:47;19.10;99.90
5846;DHT22;2949;50.778;7.094;2023-08-07T14:32:13;19.70;99.90
5846;DHT22;2949;50.778;7.094;2023-08-07T14:34:38;20.40;99.90
5846;DHT22;2949;50.778;7.094;2023-08-07T14:37:04;20.90;99.90
5846;DHT22;2949;50.778;7.094;2023-08-07T14:39:30;21.20;99.90
5846;DHT22;2949;50.778;7.094;2023-08-07T14:41:56;21.30;99.90
5846;DHT22;2949;50.778;7.094;2023-08-07T14:44:22;20.90;99.90
5846;DHT22;2949;50.778;7.094;2023-08-07T14:46:48;20.90;99.90
5846;DHT22;2949;50.778;7.094;2023-08-07T14:49:13;20.60;99.90
5846;DHT22;2949;50.778;7.094;2023-08-07T14:51:39;20.30;99.90
5846;DHT22;2949;50.778;7.094;2023-08-07T14:54:04;20.10;99.90
5846;DHT22;2949;50.778;7.094;2023-08-07T14:56:30;19.90;99.90
5846;DHT22;2949;50.778;7.094;2023-08-07T14:58:55;19.70;99.90
5846;DHT22;2949;50.778;7.094;2023-08-07T15:01:21;19.50;99.90
5846;DHT22;2949;50.778;7.094;2023-08-07T15:03:46;19.30;99.90
5846;DHT22;2949;50.778;7.094;2023-08-07T15:06:12;19.20;99.90
5846;DHT22;2949;50.778;7.094;2023-08-07T15:08:37;19.10;99.90
5846;DHT22;2949;50.778;7.094;2023-08-07T15:11:03;19.10;99.90
5846;DHT22;2949;50.778;7.094;2023-08-07T15:13:29;19.10;99.90
5846;DHT22;2949;50.778;7.094;2023-08-07T15:15:54;19.30;99.90
5846;DHT22;2949;50.778;7.094;2023-08-07T15:18:20;19.50;99.90
5846;DHT22;2949;50.778;7.094;2023-08-07T15:20:47;19.70;99.90
5846;DHT22;2949;50.778;7.094;2023-08-07T15:23:14;20.00;99.90
5846;DHT22;2949;50.778;7.094;2023-08-07T15:25:39;20.20;99.90
5846;DHT22;2949;50.778;7.094;2023-08-07T15:28:06;20.60;99.90
5846;DHT22;2949;50.778;7.094;2023-08-07T15:30:32;20.90;99.90
5846;DHT22;2949;50.778;7.094;2023-08-07T15:32:58;20.90;99.90
5846;DHT22;2949;50.778;7.094;2023-08-07T15:35:23;20.90;99.90
5846;DHT22;2949;50.778;7.094;2023-08-07T15:37:49;20.60;99.90
5846;DHT22;2949;50.778;7.094;2023-08-07T15:40:15;20.60;99.90
5846;DHT22;2949;50.778;7.094;2023-08-07T15:42:40;20.50;99.90
5846;DHT22;2949;50.778;7.094;2023-08-07T15:45:11;20.60;99.90
5846;DHT22;2949;50.778;7.094;2023-08-07T15:47:37;20.70;99.90
5846;DHT22;2949;50.778;7.094;2023-08-07T15:50:03;20.70;99.90
5846;DHT22;2949;50.778;7.094;2023-08-07T15:52:29;20.90;99.90
5846;DHT22;2949;50.778;7.094;2023-08-07T15:54:55;21.00;99.90
5846;DHT22;2949;50.778;7.094;2023-08-07T15:57:20;21.10;99.90
5846;DHT22;2949;50.778;7.094;2023-08-07T15:59:46;21.10;99.90
5846;DHT22;2949;50.778;7.094;2023-08-07T16:02:11;21.20;99.90
5846;DHT22;2949;50.778;7.094;2023-08-07T16:04:37;21.20;99.80
5846;DHT22;2949;50.778;7.094;2023-08-07T16:07:03;21.30;99.90
5846;DHT22;2949;50.778;7.094;2023-08-07T16:09:29;21.50;99.90